Time;durP1;ratioP1;P1;durP2;ratioP2;P2;SDS_P1;SDS_P2;PMS_P1;PMS_P2;Temp;Humidity;BMP_temperature;BMP_pressure;BME280_temperature;BME280_humidity;BME280_pressure;Samples;Min_cycle;Max_cycle;Signal;HPM_P1;HPM_P2
2023/03/20 00:01:20;;;;;;;22.98;14.75;;;10.10;99.90;;;;;;5029117;28;20589;-55
2023/03/20 00:03:46;;;;;;;24.77;15.98;;;10.00;99.90;;;;;;5030100;28;20237;-54
2023/03/20 00:06:20;;;;;;;25.70;15.40;;;10.00;99.90;;;;;;5030195;28;20188;-57
2023/03/20 00:08:50;;;;;;;27.77;16.83;;;10.00;99.90;;;;;;5030062;28;20214;-57
2023/03/20 00:11:29;;;;;;;26.17;16.05;;;10.00;99.90;;;;;;5029770;28;20163;-45
2023/03/20 00:14:01;;;;;;;25.63;16.10;;;9.90;99.90;;;;;;5015928;28;20179;-58
2023/03/20 00:16:35;;;;;;;31.60;16.25;;;9.90;99.90;;;;;;5029595;28;20171;-58
2023/03/20 00:19:02;;;;;;;26.17;17.08;;;9.80;99.90;;;;;;5029767;28;20162;-56
2023/03/20 00:21:29;;;;;;;26.27;17.33;;;9.90;99.90;;;;;;5029749;28;20222;-58
2023/03/20 00:23:55;;;;;;;23.75;16.33;;;9.90;99.90;;;;;;5029630;28;20203;-57
2023/03/20 00:26:25;;;;;;;26.17;16.75;;;9.90;99.90;;;;;;5029798;28;20512;-58
2023/03/20 00:28:51;;;;;;;26.55;17.50;;;9.90;99.90;;;;;;5030270;28;20522;-58
2023/03/20 00:31:33;;;;;;;23.13;15.50;;;9.90;99.90;;;;;;5036213;28;20167;-56
2023/03/20 00:34:11;;;;;;;26.20;16.50;;;9.80;99.90;;;;;;5036283;28;20178;-57
2023/03/20 00:36:37;;;;;;;20.00;14.20;;;;;;;;;;5036228;28;20173;-54
2023/03/20 00:39:03;;;;;;;18.85;13.25;;;9.80;99.90;;;;;;5036368;28;20262;-57
2023/03/20 00:41:52;;;;;;;21.55;15.05;;;9.80;99.90;;;;;;5035790;28;20163;-48
2023/03/20 00:44:17;;;;;;;21.25;13.27;;;9.80;99.90;;;;;;5036114;28;20202;-44
2023/03/20 00:46:46;;;;;;;20.90;14.13;;;9.80;99.90;;;;;;5036119;28;20189;-57
2023/03/20 00:49:12;;;;;;;22.65;13.30;;;9.80;99.90;;;;;;5035356;28;20186;-57
2023/03/20 00:51:38;;;;;;;20.92;13.95;;;;;;;;;;5036103;28;20171;-44
2023/03/20 00:54:15;;;;;;;22.38;13.57;;;9.70;99.90;;;;;;5036035;28;20213;-45
2023/03/20 00:56:50;;;;;;;20.38;13.48;;;9.70;99.90;;;;;;5035774;28;20167;-44
2023/03/20 00:59:19;;;;;;;20.80;13.57;;;9.70;99.90;;;;;;5035603;28;20181;-45
2023/03/20 01:01:45;;;;;;;23.60;13.82;;;9.70;99.90;;;;;;5036490;28;20175;-44
2023/03/20 01:04:14;;;;;;;20.48;14.07;;;9.70;99.90;;;;;;5036136;28;20616;-49
2023/03/20 01:06:40;;;;;;;22.30;14.02;;;;;;;;;;5036250;28;20167;-45
2023/03/20 01:09:06;;;;;;;19.88;14.10;;;9.70;99.90;;;;;;5035490;28;20222;-45
2023/03/20 01:11:32;;;;;;;20.40;13.57;;;;;;;;;;5035840;28;20175;-44
2023/03/20 01:13:57;;;;;;;19.17;12.55;;;9.60;99.90;;;;;;5034864;28;20172;-44
2023/03/20 01:16:25;;;;;;;24.23;14.48;;;9.60;99.90;;;;;;5035935;28;20172;-45
2023/03/20 01:18:52;;;;;;;22.23;13.52;;;9.70;99.90;;;;;;5036239;28;20179;-45
2023/03/20 01:21:19;;;;;;;20.55;14.23;;;9.60;99.90;;;;;;5034646;28;20179;-44
2023/03/20 01:23:45;;;;;;;21.00;13.68;;;9.60;99.90;;;;;;5036214;28;20221;-46
2023/03/20 01:26:23;;;;;;;21.98;13.10;;;9.60;99.90;;;;;;5036386;28;20167;-45
2023/03/20 01:28:50;;;;;;;20.92;13.13;;;9.50;99.90;;;;;;5035883;28;20171;-45
2023/03/20 01:31:16;;;;;;;22.70;13.18;;;9.60;99.90;;;;;;5036288;28;20678;-44
2023/03/20 01:33:42;;;;;;;22.77;13.30;;;9.60;99.90;;;;;;5036125;28;20229;-45
2023/03/20 01:36:14;;;;;;;20.02;12.65;;;9.50;99.90;;;;;;5035852;28;20167;-45
2023/03/20 01:38:40;;;;;;;21.42;14.20;;;9.50;99.90;;;;;;5035930;28;20191;-45
2023/03/20 01:41:17;;;;;;;22.42;13.05;;;9.50;99.90;;;;;;5032164;28;20689;-47
2023/03/20 01:43:44;;;;;;;18.88;12.77;;;9.50;99.90;;;;;;5019072;28;20207;-45
2023/03/20 01:46:10;;;;;;;20.45;13.10;;;9.50;99.90;;;;;;5032720;28;20195;-46
2023/03/20 01:48:51;;;;;;;20.48;13.02;;;9.80;99.90;;;;;;5032552;28;20194;-45
2023/03/20 01:51:21;;;;;;;20.40;12.10;;;9.60;99.90;;;;;;5032617;28;20174;-49
2023/03/20 01:53:51;;;;;;;20.05;12.38;;;9.60;99.90;;;;;;5032752;28;20203;-44
2023/03/20 01:56:18;;;;;;;18.63;12.98;;;9.50;99.90;;;;;;5031249;28;20175;-47
2023/03/20 01:58:50;;;;;;;19.13;13.13;;;9.50;99.90;;;;;;5032749;28;20167;-44
2023/03/20 02:01:17;;;;;;;16.98;12.85;;;9.50;99.90;;;;;;5032436;28;20674;-44
2023/03/20 02:03:48;;;;;;;20.73;12.25;;;9.50;99.90;;;;;;5032679;28;20269;-46
2023/03/20 02:06:14;;;;;;;17.73;11.40;;;9.40;99.90;;;;;;5032938;28;20163;-45
2023/03/20 02:08:45;;;;;;;20.52;12.93;;;9.40;99.90;;;;;;5031996;28;20215;-45
2023/03/20 02:11:12;;;;;;;21.27;13.57;;;9.40;99.90;;;;;;5032348;28;20187;-44
2023/03/20 02:13:38;;;;;;;22.85;13.63;;;;;;;;;;5032163;28;20692;-45
2023/03/20 02:16:09;;;;;;;21.70;13.02;;;9.40;99.90;;;;;;5032210;28;20222;-45
2023/03/20 02:18:35;;;;;;;19.20;13.15;;;9.40;99.90;;;;;;5031998;28;20176;-45
2023/03/20 02:21:10;;;;;;;19.30;13.25;;;9.40;99.90;;;;;;5032010;28;20195;-45
2023/03/20 02:23:51;;;;;;;21.67;14.15;;;9.40;99.90;;;;;;5032045;28;20262;-45
2023/03/20 02:26:43;;;;;;;21.30;14.60;;;9.40;99.90;;;;;;5031925;28;20168;-45
2023/03/20 02:29:23;;;;;;;23.60;13.30;;;9.40;99.90;;;;;;5031913;28;20669;-46
2023/03/20 02:32:20;;;;;;;20.95;14.07;;;9.40;99.90;;;;;;5031609;28;20175;-45
2023/03/20 02:35:14;;;;;;;20.52;13.45;;;9.30;99.90;;;;;;5030114;28;20245;-45
2023/03/20 02:37:56;;;;;;;21.38;14.38;;;9.30;99.90;;;;;;5032211;28;20343;-46
2023/03/20 02:40:38;;;;;;;20.25;13.30;;;9.30;99.90;;;;;;5031752;28;20175;-46
2023/03/20 02:43:15;;;;;;;22.80;13.85;;;9.20;99.90;;;;;;5031552;28;20199;-44
2023/03/20 02:45:56;;;;;;;21.52;12.75;;;9.30;99.90;;;;;;5032186;28;20167;-45
2023/03/20 02:48:38;;;;;;;22.95;12.52;;;9.20;99.90;;;;;;5011722;28;20186;-47
2023/03/20 02:51:41;;;;;;;19.42;12.25;;;9.10;99.90;;;;;;5016344;28;20305;-45
2023/03/20 02:54:24;;;;;;;19.52;12.00;;;9.10;99.90;;;;;;5027716;28;20179;-45
2023/03/20 02:57:07;;;;;;;17.73;10.25;;;9.10;99.90;;;;;;5031665;28;20171;-45
2023/03/20 02:59:53;;;;;;;17.75;10.13;;;9.10;99.90;;;;;;5031442;28;20179;-46
2023/03/20 03:02:33;;;;;;;18.13;11.48;;;9.10;99.90;;;;;;5031197;28;20686;-45
2023/03/20 03:05:03;;;;;;;16.27;10.32;;;9.10;99.90;;;;;;5031458;28;20179;-44
2023/03/20 03:07:32;;;;;;;18.15;11.13;;;9.10;99.90;;;;;;5030981;28;20643;-45
2023/03/20 03:10:12;;;;;;;15.63;10.15;;;9.20;99.90;;;;;;5031022;28;20175;-45
2023/03/20 03:12:42;;;;;;;13.18;9.43;;;9.10;99.90;;;;;;5030950;28;20645;-45
2023/03/20 03:15:19;;;;;;;14.95;9.30;;;9.10;99.90;;;;;;5031150;28;20191;-45
2023/03/20 03:17:48;;;;;;;13.35;9.55;;;9.10;99.90;;;;;;5030952;28;20262;-45
2023/03/20 03:20:26;;;;;;;17.75;9.68;;;9.10;99.90;;;;;;5031574;28;20171;-45
2023/03/20 03:22:52;;;;;;;12.85;8.52;;;;;;;;;;5030257;28;21967;-45
2023/03/20 03:25:21;;;;;;;20.83;9.13;;;9.10;99.90;;;;;;5030788;28;20202;-46
2023/03/20 03:27:50;;;;;;;19.42;10.07;;;9.10;99.90;;;;;;5030751;28;20174;-44
2023/03/20 03:30:16;;;;;;;15.68;8.80;;;;;;;;;;5030735;28;20392;-45
2023/03/20 03:32:54;;;;;;;14.52;8.95;;;9.00;99.90;;;;;;5031060;28;20171;-45
2023/03/20 03:35:22;;;;;;;13.80;8.90;;;9.00;99.90;;;;;;5030598;28;20171;-45
2023/03/20 03:38:19;;;;;;;17.70;9.60;;;9.00;99.90;;;;;;5030671;28;20535;-45
2023/03/20 03:41:05;;;;;;;13.30;8.02;;;8.90;99.90;;;;;;5029253;28;20207;-44
2023/03/20 03:43:37;;;;;;;13.82;8.63;;;8.90;99.90;;;;;;5029942;28;20559;-48
2023/03/20 03:46:17;;;;;;;13.00;9.00;;;8.80;99.90;;;;;;5030293;28;20175;-45
2023/03/20 03:48:47;;;;;;;12.68;9.20;;;8.70;99.90;;;;;;5030266;28;20541;-44
2023/03/20 03:51:17;;;;;;;17.13;8.88;;;8.70;99.90;;;;;;5011054;28;20177;-45
2023/03/20 03:53:50;;;;;;;17.00;8.85;;;8.60;99.90;;;;;;5011388;28;20164;-55
2023/03/20 03:56:20;;;;;;;15.48;9.88;;;8.50;99.90;;;;;;5030072;28;20649;-44
2023/03/20 03:58:52;;;;;;;13.43;7.68;;;8.40;99.90;;;;;;5030202;28;20269;-45
2023/03/20 04:01:21;;;;;;;13.32;9.15;;;8.50;99.90;;;;;;5028158;28;20167;-44
2023/03/20 04:03:55;;;;;;;14.10;8.45;;;8.40;99.90;;;;;;5028221;28;20215;-45
2023/03/20 04:06:22;;;;;;;17.40;10.68;;;8.40;99.90;;;;;;5030080;28;20171;-45
2023/03/20 04:08:48;;;;;;;15.93;9.85;;;;;;;;;;5030017;28;20293;-48
2023/03/20 04:11:19;;;;;;;15.65;9.95;;;8.40;99.90;;;;;;5030569;28;20195;-46
2023/03/20 04:13:46;;;;;;;23.75;9.88;;;8.40;99.90;;;;;;5030252;28;20186;-45
2023/03/20 04:16:13;;;;;;;20.67;10.65;;;8.40;99.90;;;;;;5028788;28;20269;-44
2023/03/20 04:18:39;;;;;;;15.98;9.23;;;;;;;;;;5029931;28;20641;-45
2023/03/20 04:21:05;;;;;;;17.05;11.02;;;8.40;99.90;;;;;;5030255;28;20163;-47
2023/03/20 04:23:31;;;;;;;18.90;11.27;;;8.40;99.90;;;;;;5029940;28;20209;-44
2023/03/20 04:25:57;;;;;;;16.83;10.25;;;8.40;99.90;;;;;;5029901;28;20272;-44
2023/03/20 04:28:23;;;;;;;17.48;9.38;;;8.40;99.90;;;;;;5029908;28;20635;-45
2023/03/20 04:30:53;;;;;;;16.90;10.73;;;8.40;99.90;;;;;;5029925;28;20175;-45
2023/03/20 04:33:18;;;;;;;18.95;11.00;;;8.30;99.90;;;;;;5029851;28;20175;-45
2023/03/20 04:35:44;;;;;;;17.90;10.50;;;;;;;;;;5029846;28;20229;-44
2023/03/20 04:38:10;;;;;;;19.85;10.35;;;8.30;99.90;;;;;;5030105;28;20179;-44
2023/03/20 04:40:36;;;;;;;18.52;9.80;;;;;;;;;;5029628;28;20179;-44
2023/03/20 04:43:02;;;;;;;22.77;10.88;;;8.30;99.90;;;;;;5029814;28;20242;-45
2023/03/20 04:45:27;;;;;;;16.92;9.85;;;8.30;99.90;;;;;;5029752;28;20532;-45
2023/03/20 04:47:53;;;;;;;17.63;9.50;;;;;;;;;;5029246;28;20206;-45
2023/03/20 04:50:19;;;;;;;18.88;10.13;;;8.40;99.90;;;;;;5029357;28;20176;-44
2023/03/20 04:52:45;;;;;;;14.93;9.13;;;8.40;99.90;;;;;;5029563;28;20172;-44
2023/03/20 04:55:11;;;;;;;17.67;10.25;;;;;;;;;;5030155;28;20175;-44
2023/03/20 04:57:36;;;;;;;17.27;10.73;;;8.40;99.90;;;;;;5029602;28;20171;-48
2023/03/20 05:00:03;;;;;;;18.75;10.30;;;8.30;99.90;;;;;;5029339;28;20172;-45
2023/03/20 05:02:29;;;;;;;19.10;10.82;;;8.30;99.90;;;;;;5029727;28;20634;-45
2023/03/20 05:04:55;;;;;;;17.40;10.38;;;;;;;;;;5029545;28;20210;-45
2023/03/20 05:07:20;;;;;;;22.15;10.93;;;8.20;99.90;;;;;;5029363;28;20242;-44
2023/03/20 05:09:46;;;;;;;23.80;11.13;;;8.20;99.90;;;;;;5029270;28;20533;-45
2023/03/20 05:12:12;;;;;;;20.63;11.25;;;8.20;99.90;;;;;;5029673;28;20195;-45
2023/03/20 05:14:38;;;;;;;17.25;10.88;;;;;;;;;;5029924;28;20221;-44
2023/03/20 05:17:03;;;;;;;19.67;11.43;;;8.20;99.90;;;;;;5032968;28;20172;-44
2023/03/20 05:19:29;;;;;;;19.63;10.85;;;;;;;;;;5033363;28;20210;-45
2023/03/20 05:21:55;;;;;;;17.88;10.77;;;;;;;;;;5033067;28;20535;-45
2023/03/20 05:24:21;;;;;;;18.77;10.65;;;8.20;99.90;;;;;;5032821;28;20207;-44
2023/03/20 05:26:47;;;;;;;18.52;10.23;;;8.20;99.90;;;;;;5032764;28;20186;-44
2023/03/20 05:29:13;;;;;;;20.08;10.10;;;;;;;;;;5033400;28;20254;-45
2023/03/20 05:31:39;;;;;;;17.08;10.70;;;;;;;;;;5032880;28;20170;-45
2023/03/20 05:34:05;;;;;;;19.63;11.05;;;;;;;;;;5032705;28;20267;-45
2023/03/20 05:36:31;;;;;;;17.42;10.25;;;8.10;99.90;;;;;;5032953;28;20167;-44
2023/03/20 05:38:56;;;;;;;19.90;10.48;;;8.10;99.90;;;;;;5032755;28;20174;-45
2023/03/20 05:41:22;;;;;;;17.92;10.48;;;8.10;99.90;;;;;;5033009;28;20167;-44
2023/03/20 05:43:47;;;;;;;18.20;10.05;;;8.00;99.90;;;;;;5032708;28;20242;-45
2023/03/20 05:46:13;;;;;;;18.92;9.98;;;8.00;99.90;;;;;;5032809;28;20531;-44
2023/03/20 05:48:39;;;;;;;16.35;10.18;;;;;;;;;;5031466;28;20171;-44
2023/03/20 05:51:05;;;;;;;21.73;10.38;;;8.00;99.90;;;;;;5032418;28;20262;-45
2023/03/20 05:53:31;;;;;;;15.38;9.02;;;7.90;99.90;;;;;;5032551;28;20237;-44
2023/03/20 05:55:57;;;;;;;19.70;9.93;;;;;;;;;;5032204;28;20176;-45
2023/03/20 05:58:22;;;;;;;14.95;8.60;;;8.00;99.90;;;;;;5032473;28;20635;-45
2023/03/20 06:00:48;;;;;;;16.45;8.82;;;8.00;99.90;;;;;;5032417;28;20212;-46
2023/03/20 06:03:14;;;;;;;15.70;9.65;;;;;;;;;;5032499;28;20667;-45
2023/03/20 06:05:40;;;;;;;22.77;10.95;;;7.90;99.90;;;;;;5032649;28;20313;-44
2023/03/20 06:08:05;;;;;;;19.65;9.38;;;7.90;99.90;;;;;;5032048;28;20226;-45
2023/03/20 06:10:31;;;;;;;22.88;9.80;;;8.00;99.90;;;;;;5032287;28;20167;-45
2023/03/20 06:12:59;;;;;;;20.00;8.85;;;8.00;99.90;;;;;;5031942;28;20171;-45
2023/03/20 06:15:28;;;;;;;23.27;9.55;;;8.00;99.90;;;;;;5032073;28;20176;-45
2023/03/20 06:17:55;;;;;;;29.30;10.30;;;8.10;99.90;;;;;;5031952;28;20540;-44
2023/03/20 06:20:20;;;;;;;27.25;10.05;;;8.10;99.90;;;;;;5031632;28;20717;-48
2023/03/20 06:22:46;;;;;;;19.73;9.23;;;8.10;99.90;;;;;;5031829;28;20242;-46
2023/03/20 06:25:11;;;;;;;27.27;10.55;;;8.20;99.90;;;;;;5032258;28;20175;-47
2023/03/20 06:27:38;;;;;;;22.33;9.38;;;8.30;99.90;;;;;;5030979;28;20178;-45
2023/03/20 06:30:04;;;;;;;28.20;9.98;;;8.30;99.90;;;;;;5031502;28;20191;-52
2023/03/20 06:32:30;;;;;;;17.67;9.63;;;8.30;99.90;;;;;;5031546;28;20194;-47
2023/03/20 06:34:56;;;;;;;19.67;9.57;;;8.30;99.90;;;;;;5031483;28;20624;-45
2023/03/20 06:37:21;;;;;;;18.13;9.15;;;8.30;99.90;;;;;;5031863;28;20167;-46
2023/03/20 06:39:47;;;;;;;17.67;8.95;;;8.30;99.90;;;;;;5031554;28;20163;-45
2023/03/20 06:42:13;;;;;;;20.40;9.77;;;8.40;99.90;;;;;;5031589;28;20532;-45
2023/03/20 06:44:39;;;;;;;15.32;8.90;;;;;;;;;;5031820;28;20210;-45
2023/03/20 06:47:05;;;;;;;16.90;9.13;;;8.40;99.90;;;;;;5031065;28;20175;-47
2023/03/20 06:49:31;;;;;;;19.13;8.90;;;;;;;;;;5031261;28;20170;-45
2023/03/20 06:51:58;;;;;;;18.92;9.23;;;8.40;99.90;;;;;;5031279;28;20171;-44
2023/03/20 06:54:24;;;;;;;18.05;8.75;;;8.40;99.90;;;;;;5031478;28;20206;-46
2023/03/20 06:56:50;;;;;;;24.10;10.02;;;8.40;99.90;;;;;;5031286;28;20174;-45
2023/03/20 06:59:16;;;;;;;17.83;9.77;;;;;;;;;;5031456;28;20175;-46
2023/03/20 07:01:42;;;;;;;16.27;9.40;;;8.40;99.90;;;;;;5031730;28;20246;-45
2023/03/20 07:04:07;;;;;;;21.65;9.50;;;8.50;99.90;;;;;;5030867;28;20298;-45
2023/03/20 07:06:33;;;;;;;19.13;10.05;;;8.60;99.90;;;;;;5031070;28;20160;-49
2023/03/20 07:09:00;;;;;;;19.13;10.32;;;8.60;99.90;;;;;;5030763;28;20222;-47
2023/03/20 07:11:27;;;;;;;19.15;9.52;;;;;;;;;;5031080;28;20182;-45
2023/03/20 07:13:52;;;;;;;14.88;8.57;;;8.70;99.90;;;;;;5031057;28;20167;-45
2023/03/20 07:16:18;;;;;;;20.35;9.90;;;8.60;99.90;;;;;;5028489;28;20187;-44
2023/03/20 07:18:44;;;;;;;25.83;9.32;;;;;;;;;;5030595;28;20191;-50
2023/03/20 07:21:17;;;;;;;18.50;9.00;;;8.70;99.90;;;;;;5031644;28;20171;-45
2023/03/20 07:23:43;;;;;;;16.00;9.05;;;;;;;;;;5030992;28;20207;-46
2023/03/20 07:26:09;;;;;;;14.95;8.82;;;;;;;;;;5031130;28;20178;-46
2023/03/20 07:28:34;;;;;;;18.58;9.18;;;8.80;99.90;;;;;;5030595;28;20171;-46
2023/03/20 07:31:00;;;;;;;14.30;8.60;;;8.80;99.90;;;;;;5030542;28;20234;-45
2023/03/20 07:33:26;;;;;;;16.52;8.85;;;8.80;99.90;;;;;;5029272;28;20184;-45
2023/03/20 07:35:53;;;;;;;16.30;9.27;;;8.90;99.90;;;;;;5030355;28;20190;-47
2023/03/20 07:38:19;;;;;;;16.35;8.20;;;9.00;99.90;;;;;;5029411;28;20167;-44
2023/03/20 07:40:47;;;;;;;11.50;7.28;;;;;;;;;;5030252;28;20179;-46
2023/03/20 07:43:13;;;;;;;15.30;8.38;;;;;;;;;;5030405;28;20651;-45
2023/03/20 07:45:39;;;;;;;14.80;8.02;;;9.10;99.90;;;;;;5030597;28;20195;-46
2023/03/20 07:48:05;;;;;;;14.32;8.20;;;9.10;99.90;;;;;;5030310;28;20202;-45
2023/03/20 07:50:30;;;;;;;12.45;8.68;;;9.00;99.90;;;;;;5030046;28;20175;-45
2023/03/20 07:52:56;;;;;;;12.18;7.60;;;9.10;99.90;;;;;;5030026;28;20266;-44
2023/03/20 07:55:21;;;;;;;13.35;7.80;;;9.10;99.90;;;;;;5030226;28;20167;-45
2023/03/20 07:57:48;;;;;;;15.48;7.55;;;9.20;99.90;;;;;;5030128;28;20678;-45
2023/03/20 08:00:15;;;;;;;15.40;8.27;;;9.30;99.90;;;;;;5030021;28;20655;-53
2023/03/20 08:02:41;;;;;;;12.02;7.32;;;9.50;99.90;;;;;;5030219;28;20591;-47
2023/03/20 08:05:06;;;;;;;13.13;7.10;;;9.60;99.90;;;;;;5028707;28;20236;-46
2023/03/20 08:07:32;;;;;;;9.07;6.65;;;9.60;99.90;;;;;;5029758;28;20262;-46
2023/03/20 08:09:58;;;;;;;12.00;6.65;;;;;;;;;;5029600;28;20182;-43
2023/03/20 08:12:25;;;;;;;10.43;6.60;;;;;;;;;;5030244;28;20474;-44
2023/03/20 08:14:51;;;;;;;10.25;5.93;;;9.60;99.90;;;;;;5030004;28;20167;-58
2023/03/20 08:17:16;;;;;;;14.07;6.30;;;9.70;99.90;;;;;;5030134;28;20171;-46
2023/03/20 08:19:42;;;;;;;13.25;6.88;;;9.70;99.90;;;;;;5030203;28;20168;-47
2023/03/20 08:22:08;;;;;;;9.25;6.43;;;9.70;99.90;;;;;;5030296;28;20305;-45
2023/03/20 08:24:33;;;;;;;13.77;6.85;;;9.60;99.90;;;;;;5029646;28;20229;-45
2023/03/20 08:26:59;;;;;;;13.50;6.80;;;9.70;99.90;;;;;;5029432;28;20186;-45
2023/03/20 08:29:25;;;;;;;10.30;5.90;;;;;;;;;;5030086;28;20258;-55
2023/03/20 08:31:51;;;;;;;8.50;6.28;;;9.60;99.90;;;;;;5029771;28;20189;-49
2023/03/20 08:34:16;;;;;;;10.80;6.68;;;9.50;99.90;;;;;;5029487;28;20266;-44
2023/03/20 08:36:42;;;;;;;12.75;6.78;;;9.60;99.90;;;;;;5029996;28;20163;-52
2023/03/20 08:39:08;;;;;;;11.65;6.38;;;9.50;99.90;;;;;;5029586;28;20638;-53
2023/03/20 08:41:37;;;;;;;13.40;6.43;;;9.60;99.90;;;;;;5029815;28;20236;-53
2023/03/20 08:44:03;;;;;;;12.57;6.65;;;;;;;;;;5029683;28;20206;-53
2023/03/20 08:46:29;;;;;;;12.20;5.97;;;9.80;99.90;;;;;;5029573;28;20247;-50
2023/03/20 08:48:55;;;;;;;9.38;6.32;;;;;;;;;;5029800;28;20210;-48
2023/03/20 08:51:21;;;;;;;9.60;6.15;;;10.10;99.90;;;;;;5033260;28;20206;-48
2023/03/20 08:53:46;;;;;;;9.43;6.10;;;10.00;99.90;;;;;;5033067;28;20183;-47
2023/03/20 08:56:12;;;;;;;13.48;6.25;;;;;;;;;;5033797;28;20254;-47
2023/03/20 08:58:38;;;;;;;12.63;6.50;;;;;;;;;;5033626;28;20159;-47
2023/03/20 09:01:06;;;;;;;12.65;7.03;;;10.20;99.90;;;;;;5033178;28;20259;-51
2023/03/20 09:03:32;;;;;;;13.25;5.97;;;;;;;;;;5033330;28;20238;-49
2023/03/20 09:05:58;;;;;;;9.40;5.50;;;;;;;;;;5031753;28;20616;-47
2023/03/20 09:08:24;;;;;;;11.48;6.20;;;9.90;99.90;;;;;;5014382;28;20276;-47
2023/03/20 09:10:49;;;;;;;9.85;5.57;;;10.00;99.90;;;;;;5014441;28;20165;-47
2023/03/20 09:13:15;;;;;;;10.27;5.32;;;10.00;99.90;;;;;;5025791;28;20624;-46
2023/03/20 09:15:41;;;;;;;12.85;6.78;;;9.90;99.90;;;;;;5034345;28;20542;-46
2023/03/20 09:18:07;;;;;;;13.65;6.50;;;;;;;;;;5033945;28;20191;-51
2023/03/20 09:20:33;;;;;;;12.52;6.05;;;10.00;99.90;;;;;;5034025;28;20651;-45
2023/03/20 09:22:58;;;;;;;14.73;6.72;;;10.20;99.90;;;;;;5033728;28;20187;-45
2023/03/20 09:25:24;;;;;;;10.07;5.63;;;10.30;99.90;;;;;;5033549;28;20215;-45
2023/03/20 09:27:55;;;;;;;8.43;4.65;;;10.20;99.90;;;;;;5033793;28;20354;-46
2023/03/20 09:30:22;;;;;;;11.57;6.03;;;10.30;99.90;;;;;;5033811;28;20178;-45
2023/03/20 09:32:50;;;;;;;9.75;5.13;;;10.20;99.90;;;;;;5033463;28;20175;-45
2023/03/20 09:35:16;;;;;;;10.38;5.15;;;10.30;99.90;;;;;;5034031;28;20581;-45
2023/03/20 09:37:42;;;;;;;6.65;3.70;;;10.10;99.90;;;;;;5033938;28;20259;-45
2023/03/20 09:40:30;;;;;;;6.90;4.50;;;10.30;99.90;;;;;;5034132;28;20250;-46
2023/03/20 09:43:17;;;;;;;9.40;4.25;;;10.30;99.90;;;;;;5033196;28;20203;-49
2023/03/20 09:45:57;;;;;;;11.07;4.90;;;10.40;99.90;;;;;;5033798;28;20155;-45
2023/03/20 09:48:33;;;;;;;8.52;3.70;;;10.40;99.90;;;;;;5033573;28;20572;-47
2023/03/20 09:51:25;;;;;;;8.57;4.05;;;10.40;99.90;;;;;;5033234;28;20168;-46
2023/03/20 09:54:15;;;;;;;7.32;3.33;;;10.40;99.90;;;;;;5033412;28;20174;-46
2023/03/20 09:56:40;;;;;;;8.60;4.13;;;10.40;99.90;;;;;;5033914;28;20210;-46
2023/03/20 09:59:06;;;;;;;9.18;3.97;;;10.40;99.90;;;;;;5033236;28;20202;-46
2023/03/20 10:01:54;;;;;;;6.38;3.70;;;10.50;99.90;;;;;;5032235;28;20757;-45
2023/03/20 10:04:19;;;;;;;10.02;3.88;;;10.70;99.90;;;;;;5013499;28;20215;-46
2023/03/20 10:06:45;;;;;;;6.60;3.90;;;10.60;99.90;;;;;;5013228;28;20628;-45
2023/03/20 10:09:20;;;;;;;9.02;3.50;;;10.50;99.90;;;;;;5032225;28;20234;-44
2023/03/20 10:11:46;;;;;;;6.60;3.60;;;10.50;99.90;;;;;;5033309;28;20242;-44
2023/03/20 10:14:37;;;;;;;8.93;4.00;;;10.40;99.90;;;;;;5033205;28;20181;-45
2023/03/20 10:17:11;;;;;;;7.40;4.22;;;10.40;99.90;;;;;;5032589;28;20175;-45
2023/03/20 10:19:48;;;;;;;6.25;3.50;;;10.50;99.90;;;;;;5032735;28;20175;-47
2023/03/20 10:22:35;;;;;;;8.18;3.67;;;10.50;99.90;;;;;;5032689;28;20178;-46
2023/03/20 10:25:26;;;;;;;13.38;3.70;;;10.60;99.90;;;;;;5032879;28;20647;-47
2023/03/20 10:27:56;;;;;;;6.28;3.33;;;10.60;99.90;;;;;;5032998;28;20167;-46
2023/03/20 10:30:46;;;;;;;6.32;3.67;;;10.50;99.90;;;;;;5032497;28;20175;-46
2023/03/20 10:33:48;;;;;;;4.78;2.95;;;10.30;99.90;;;;;;5032940;28;20172;-47
2023/03/20 10:36:49;;;;;;;4.57;3.00;;;10.40;99.90;;;;;;5029786;28;20194;-47
2023/03/20 10:39:36;;;;;;;6.78;3.05;;;10.30;99.90;;;;;;5030363;28;20182;-47
2023/03/20 10:42:08;;;;;;;7.07;3.45;;;10.40;99.90;;;;;;5030791;28;20159;-46
2023/03/20 10:44:39;;;;;;;9.60;3.72;;;10.20;99.90;;;;;;5032285;28;20199;-55
2023/03/20 10:47:08;;;;;;;9.20;3.72;;;10.40;99.90;;;;;;5032431;28;20218;-46
2023/03/20 10:49:47;;;;;;;10.65;3.53;;;10.40;99.90;;;;;;5031893;28;20670;-46
2023/03/20 10:52:21;;;;;;;9.68;4.20;;;10.60;99.90;;;;;;5031909;28;20652;-47
2023/03/20 10:54:53;;;;;;;6.00;3.30;;;10.60;99.90;;;;;;5032143;28;20171;-46
2023/03/20 10:57:25;;;;;;;9.05;3.67;;;10.40;99.90;;;;;;5031747;28;20207;-47
2023/03/20 10:59:53;;;;;;;7.72;3.38;;;10.30;99.90;;;;;;5032026;28;20182;-46
2023/03/20 11:02:22;;;;;;;9.20;3.60;;;10.20;99.90;;;;;;5031649;28;20682;-46
2023/03/20 11:04:48;;;;;;;9.82;4.15;;;10.30;99.90;;;;;;5031975;28;20237;-46
2023/03/20 11:07:33;;;;;;;4.10;2.67;;;10.40;99.90;;;;;;5031431;28;20538;-47
2023/03/20 11:10:05;;;;;;;11.23;4.00;;;10.30;99.90;;;;;;5031603;28;20171;-49
2023/03/20 11:12:48;;;;;;;9.30;3.92;;;10.20;99.90;;;;;;5031604;28;20173;-46
2023/03/20 11:15:31;;;;;;;6.07;3.65;;;10.20;99.90;;;;;;5031571;28;20155;-48
2023/03/20 11:17:57;;;;;;;8.18;3.03;;;;;;;;;;5031165;28;20647;-58
2023/03/20 11:20:25;;;;;;;7.75;3.40;;;10.10;99.90;;;;;;5031655;28;20377;-57
2023/03/20 11:22:57;;;;;;;6.13;3.20;;;10.10;99.90;;;;;;5031315;28;20265;-58
2023/03/20 11:25:36;;;;;;;11.10;3.38;;;10.10;99.90;;;;;;5031415;28;20515;-58
2023/03/20 11:28:38;;;;;;;11.13;3.40;;;10.00;99.90;;;;;;5031439;28;20171;-52
2023/03/20 11:31:10;;;;;;;10.77;3.63;;;10.10;99.90;;;;;;5031240;28;20171;-53
2023/03/20 11:33:39;;;;;;;6.18;3.28;;;9.90;99.90;;;;;;5031244;28;20199;-56
2023/03/20 11:36:39;;;;;;;7.47;3.15;;;9.80;99.90;;;;;;5031264;28;20173;-56
2023/03/20 11:39:23;;;;;;;7.43;3.38;;;9.80;99.90;;;;;;5030773;28;20183;-49
2023/03/20 11:41:54;;;;;;;6.22;3.75;;;10.00;99.90;;;;;;5031243;28;20169;-53
2023/03/20 11:44:30;;;;;;;4.95;2.83;;;9.80;99.90;;;;;;5030978;28;20210;-51
2023/03/20 11:47:04;;;;;;;5.88;2.83;;;9.70;99.90;;;;;;5031221;28;20435;-51
2023/03/20 11:49:31;;;;;;;6.85;2.35;;;9.70;99.90;;;;;;5031277;28;20164;-48
2023/03/20 11:52:01;;;;;;;4.82;2.55;;;9.50;99.90;;;;;;5031327;28;20176;-54
2023/03/20 11:54:29;;;;;;;4.75;2.88;;;9.70;99.90;;;;;;5031045;28;20250;-52
2023/03/20 11:56:59;;;;;;;6.18;2.25;;;9.80;99.90;;;;;;5030839;28;20182;-57
2023/03/20 11:59:35;;;;;;;6.07;2.58;;;9.90;99.90;;;;;;5030829;28;20168;-47
2023/03/20 12:02:03;;;;;;;5.93;2.28;;;10.00;99.90;;;;;;5030412;28;20169;-53
2023/03/20 12:04:36;;;;;;;6.10;2.80;;;10.10;99.90;;;;;;5031034;28;20218;-58
2023/03/20 12:07:26;;;;;;;6.70;2.33;;;10.20;99.90;;;;;;5030946;28;20175;-52
2023/03/20 12:10:01;;;;;;;8.40;2.50;;;10.10;99.90;;;;;;5030733;28;20227;-56
2023/03/20 12:12:49;;;;;;;4.20;2.30;;;10.00;99.90;;;;;;5030826;28;20171;-50
2023/03/20 12:15:23;;;;;;;4.95;2.15;;;10.00;99.90;;;;;;5030849;28;20160;-55
2023/03/20 12:18:17;;;;;;;4.82;2.58;;;10.00;99.90;;;;;;5030164;28;20170;-57
2023/03/20 12:21:03;;;;;;;6.57;2.70;;;10.20;99.90;;;;;;5030925;28;20168;-48
2023/03/20 12:23:35;;;;;;;7.60;2.90;;;10.20;99.90;;;;;;5030492;28;20245;-50
2023/03/20 12:26:11;;;;;;;8.60;2.60;;;10.20;99.90;;;;;;5029850;28;20166;-55
2023/03/20 12:28:45;;;;;;;6.95;2.80;;;10.00;99.90;;;;;;5030554;28;20665;-57
2023/03/20 12:31:11;;;;;;;5.30;2.67;;;;;;;;;;5030492;28;20592;-54
2023/03/20 12:33:46;;;;;;;7.38;2.53;;;10.10;99.90;;;;;;5030441;28;20242;-56
2023/03/20 12:36:17;;;;;;;6.70;2.70;;;9.90;99.90;;;;;;5030625;28;20163;-53
2023/03/20 12:38:44;;;;;;;3.67;2.05;;;10.00;99.90;;;;;;5030610;28;20163;-57
2023/03/20 12:41:14;;;;;;;4.28;2.67;;;10.00;99.90;;;;;;5030847;28;20210;-57
2023/03/20 12:44:02;;;;;;;6.32;2.72;;;10.40;99.90;;;;;;5030983;28;20215;-58
2023/03/20 12:46:41;;;;;;;5.70;2.63;;;10.30;99.90;;;;;;5029674;28;20171;-53
2023/03/20 12:49:32;;;;;;;5.60;2.60;;;10.40;99.90;;;;;;5029959;28;20198;-54
2023/03/20 12:52:31;;;;;;;5.10;2.50;;;10.50;99.90;;;;;;5030181;28;20195;-56
2023/03/20 12:55:00;;;;;;;4.00;2.13;;;10.50;99.90;;;;;;5030206;28;20655;-57
2023/03/20 12:58:03;;;;;;;5.93;2.30;;;10.50;99.90;;;;;;5030460;28;20176;-48
2023/03/20 13:00:50;;;;;;;9.00;2.88;;;10.40;99.90;;;;;;5028868;28;20178;-56
2023/03/20 13:03:29;;;;;;;5.22;2.60;;;10.50;99.90;;;;;;5029132;28;20227;-50
2023/03/20 13:06:07;;;;;;;7.05;2.25;;;10.50;99.90;;;;;;5030064;28;20195;-53
2023/03/20 13:08:36;;;;;;;7.38;3.03;;;10.70;99.90;;;;;;5030210;28;20223;-51
2023/03/20 13:11:14;;;;;;;9.93;2.33;;;10.50;99.90;;;;;;5030179;28;20203;-55
2023/03/20 13:14:03;;;;;;;6.75;2.60;;;10.50;99.90;;;;;;5030080;28;20250;-56
2023/03/20 13:16:44;;;;;;;7.40;2.80;;;10.80;99.90;;;;;;5029262;28;20190;-56